createdAt,value
2019-01-05T00:02:13.154Z,4.20
2019-01-05T00:05:11.723Z,4.20
2019-01-05T00:08:01.297Z,4.20
2019-01-05T00:10:50.960Z,4.20
2019-01-05T00:13:39.270Z,4.20
2019-01-05T00:16:27.805Z,4.30
2019-01-05T00:19:18.035Z,4.30
2019-01-05T00:22:11.150Z,4.30
2019-01-05T00:25:00.164Z,4.30
2019-01-05T00:27:49.294Z,4.30
2019-01-05T00:30:34.870Z,4.30
2019-01-05T00:33:43.169Z,4.30
2019-01-05T00:36:46.789Z,4.30
2019-01-05T00:39:35.548Z,4.30
2019-01-05T00:42:24.099Z,4.30
2019-01-05T00:45:13.724Z,4.30
2019-01-05T00:48:03.247Z,4.40
2019-01-05T00:50:52.441Z,4.40
2019-01-05T00:53:42.323Z,4.40
2019-01-05T00:56:32.116Z,4.40
2019-01-05T00:59:41.672Z,4.40
2019-01-05T01:02:30.515Z,4.40
2019-01-05T01:05:22.624Z,4.40
2019-01-05T01:08:24.613Z,4.40
2019-01-05T01:11:12.923Z,4.40
2019-01-05T01:14:08.688Z,4.40
2019-01-05T01:16:57.170Z,4.40
2019-01-05T01:19:45.403Z,4.40
2019-01-05T01:22:41.424Z,4.40
2019-01-05T01:25:30.016Z,4.40
2019-01-05T01:28:18.708Z,4.40
2019-01-05T01:31:07.160Z,4.30
2019-01-05T01:34:04.203Z,4.30
2019-01-05T01:36:48.717Z,4.30
2019-01-05T01:39:42.871Z,4.30
2019-01-05T01:42:34.058Z,4.30
2019-01-05T01:45:26.616Z,4.30
2019-01-05T01:48:25.008Z,4.30
2019-01-05T01:51:13.696Z,4.40
2019-01-05T01:54:04.985Z,4.30
2019-01-05T01:57:08.571Z,4.40
2019-01-05T02:00:09.541Z,4.40
2019-01-05T02:03:05.681Z,4.40
2019-01-05T02:06:03.104Z,4.40
2019-01-05T02:08:57.744Z,4.40
2019-01-05T02:11:50.957Z,4.40
2019-01-05T02:14:45.109Z,4.40
2019-01-05T02:18:17.547Z,4.40
2019-01-05T02:22:02.283Z,4.30
2019-01-05T02:25:30.442Z,4.30
2019-01-05T02:28:51.177Z,4.30
2019-01-05T02:32:03.577Z,4.30
2019-01-05T02:35:35.970Z,4.30
2019-01-05T02:39:05.378Z,4.20
2019-01-05T02:42:45.732Z,4.20
2019-01-05T02:46:15.029Z,4.20
2019-01-05T02:49:27.848Z,4.10
2019-01-05T02:53:07.666Z,4.10
2019-01-05T02:56:43.463Z,4.10
2019-01-05T03:00:25.959Z,4.10
2019-01-05T03:03:37.899Z,4.10
2019-01-05T03:07:09.044Z,4.10
2019-01-05T03:10:23.034Z,4.00
2019-01-05T03:13:58.865Z,4.00
2019-01-05T03:17:41.844Z,4.00
2019-01-05T03:21:36.353Z,4.00
2019-01-05T03:25:13.198Z,3.90
2019-01-05T03:28:53.997Z,3.90
2019-01-05T03:32:27.630Z,4.00
2019-01-05T03:35:36.347Z,4.00
2019-01-05T03:38:56.657Z,4.10
2019-01-05T03:42:29.794Z,4.10
2019-01-05T03:45:51.285Z,4.10
2019-01-05T03:49:12.807Z,4.10
2019-01-05T03:52:56.527Z,4.10
2019-01-05T03:56:45.011Z,4.20
2019-01-05T04:00:23.177Z,4.20
2019-01-05T04:04:04.555Z,4.10
2019-01-05T04:07:40.027Z,4.10
2019-01-05T04:11:10.267Z,4.10
2019-01-05T04:14:50.462Z,4.00
2019-01-05T04:18:24.590Z,4.10
2019-01-05T04:21:51.464Z,4.00
2019-01-05T04:25:33.723Z,4.00
2019-01-05T04:28:57.344Z,4.00
2019-01-05T04:32:40.883Z,4.00
2019-01-05T04:36:10.304Z,4.00
2019-01-05T04:40:00.724Z,4.00
2019-01-05T04:43:07.576Z,4.00
2019-01-05T04:46:35.231Z,4.00
2019-01-05T04:49:56.505Z,4.00
2019-01-05T04:53:31.810Z,4.00
2019-01-05T04:57:04.891Z,4.00
2019-01-05T05:01:01.300Z,3.90
2019-01-05T05:04:52.833Z,3.90
2019-01-05T05:08:34.944Z,3.90
2019-01-05T05:12:03.459Z,3.90
2019-01-05T05:15:35.538Z,3.90
2019-01-05T05:19:06.744Z,3.80
2019-01-05T05:22:35.885Z,3.80
2019-01-05T05:26:10.153Z,3.80
2019-01-05T05:29:53.974Z,3.80
2019-01-05T05:33:26.267Z,3.80
2019-01-05T05:36:59.149Z,3.80
2019-01-05T05:40:40.716Z,3.90
2019-01-05T05:44:05.338Z,3.90
2019-01-05T05:47:32.697Z,3.90
2019-01-05T05:51:20.172Z,3.90
2019-01-05T05:54:46.956Z,4.00
2019-01-05T05:58:07.878Z,3.90
2019-01-05T06:01:40.499Z,4.00
2019-01-05T06:05:28.016Z,4.00
2019-01-05T06:09:15.467Z,4.00
2019-01-05T06:13:09.688Z,4.00
2019-01-05T06:16:36.539Z,4.10
2019-01-05T06:20:15.108Z,4.10
2019-01-05T06:23:56.796Z,4.10
2019-01-05T06:27:39.627Z,4.20
2019-01-05T06:31:47.304Z,4.10
2019-01-05T06:35:15.026Z,4.20
2019-01-05T06:39:18.333Z,4.20
2019-01-05T06:42:59.867Z,4.20
2019-01-05T06:46:28.523Z,4.10
2019-01-05T06:49:57.116Z,4.10
2019-01-05T06:53:29.816Z,4.10
2019-01-05T06:57:17.008Z,4.10
2019-01-05T07:00:57.210Z,4.00
2019-01-05T07:04:56.180Z,4.00
2019-01-05T07:08:34.572Z,3.90
2019-01-05T07:11:53.820Z,3.80
2019-01-05T07:15:36.334Z,3.80
2019-01-05T07:19:12.025Z,3.70
2019-01-05T07:22:39.197Z,3.60
2019-01-05T07:25:58.539Z,3.70
2019-01-05T07:29:43.504Z,3.70
2019-01-05T07:33:14.463Z,3.70
2019-01-05T07:37:01.797Z,3.70
2019-01-05T07:40:45.398Z,3.60
2019-01-05T07:44:33.425Z,3.60
2019-01-05T07:48:21.874Z,3.60
2019-01-05T07:51:53.337Z,3.60
2019-01-05T07:55:24.058Z,3.70
2019-01-05T07:59:09.355Z,3.70
2019-01-05T08:02:46.586Z,3.90
2019-01-05T08:06:50.183Z,4.00
2019-01-05T08:10:33.596Z,4.10
2019-01-05T08:14:17.447Z,4.20
2019-01-05T08:18:21.093Z,4.10
2019-01-05T08:21:52.973Z,4.20
2019-01-05T08:25:18.064Z,4.20
2019-01-05T08:28:58.999Z,4.30
2019-01-05T08:32:27.315Z,4.40
2019-01-05T08:36:13.709Z,5.00
2019-01-05T08:40:13.433Z,5.30
2019-01-05T08:43:33.805Z,5.10
2019-01-05T08:47:02.348Z,4.80
2019-01-05T08:50:55.496Z,4.60
2019-01-05T08:54:19.886Z,4.50
2019-01-05T08:58:20.273Z,4.40
2019-01-05T09:02:04.109Z,4.30
2019-01-05T09:05:50.184Z,4.20
2019-01-05T09:09:17.846Z,4.10
2019-01-05T09:13:06.820Z,4.00
2019-01-05T09:16:48.053Z,3.80
2019-01-05T09:20:12.744Z,3.70
2019-01-05T09:23:56.751Z,3.60
2019-01-05T09:27:38.039Z,3.60
2019-01-05T09:30:55.249Z,3.80
2019-01-05T09:34:23.267Z,4.00
2019-01-05T09:38:23.752Z,4.10
2019-01-05T09:41:35.329Z,4.10
2019-01-05T09:45:11.321Z,4.10
2019-01-05T09:48:42.472Z,4.00
2019-01-05T09:52:07.803Z,4.00
2019-01-05T09:55:48.561Z,4.00
2019-01-05T09:59:12.544Z,5.00
2019-01-05T10:02:55.418Z,6.00
2019-01-05T10:06:36.934Z,6.80
2019-01-05T10:10:13.044Z,7.40
2019-01-05T10:13:37.859Z,6.90
2019-01-05T10:17:21.753Z,6.70
2019-01-05T10:21:28.298Z,7.20
2019-01-05T10:24:56.475Z,6.70
2019-01-05T10:28:29.062Z,6.00
2019-01-05T10:32:03.806Z,5.40
2019-01-05T10:35:09.758Z,5.00
2019-01-05T10:38:47.120Z,4.80
2019-01-05T10:42:42.841Z,4.70
2019-01-05T10:46:16.058Z,4.60
2019-01-05T10:49:56.853Z,4.40
2019-01-05T10:53:32.938Z,4.10
2019-01-05T10:57:09.360Z,4.00
2019-01-05T11:00:44.270Z,3.90
2019-01-05T11:04:02.867Z,3.90
2019-01-05T11:07:55.095Z,3.80
2019-01-05T11:11:14.636Z,3.80
2019-01-05T11:14:42.123Z,3.80
2019-01-05T11:18:13.544Z,3.70
2019-01-05T11:26:02.209Z,3.30
2019-01-05T11:29:43.193Z,3.30
2019-01-05T11:33:52.890Z,3.40
2019-01-05T11:38:01.145Z,3.50
2019-01-05T11:45:50.852Z,4.00
2019-01-05T11:49:31.847Z,4.40
2019-01-05T11:53:15.463Z,4.70
2019-01-05T11:56:44.391Z,4.60
2019-01-05T12:00:30.759Z,4.40
2019-01-05T12:04:11.171Z,4.20
2019-01-05T12:08:07.811Z,4.00
2019-01-05T12:11:35.272Z,4.00
2019-01-05T12:15:26.277Z,4.00
2019-01-05T12:18:41.332Z,4.00
2019-01-05T12:22:33.624Z,3.90
2019-01-05T12:26:22.000Z,3.90
2019-01-05T12:29:58.056Z,4.30
2019-01-05T12:33:45.294Z,5.30
2019-01-05T12:37:11.517Z,7.20
2019-01-05T12:41:01.259Z,7.30
2019-01-05T12:45:09.474Z,6.40
2019-01-05T12:48:33.196Z,7.20
2019-01-05T12:52:02.626Z,6.80
2019-01-05T12:55:37.152Z,6.10
2019-01-05T12:58:58.866Z,5.30
2019-01-05T13:02:22.979Z,4.70
2019-01-05T13:05:47.062Z,4.30
2019-01-05T13:09:47.145Z,3.90
2019-01-05T13:13:18.629Z,3.70
2019-01-05T13:16:32.315Z,3.30
2019-01-05T13:19:59.864Z,3.10
2019-01-05T13:23:21.561Z,3.10
2019-01-05T13:26:57.229Z,2.90
2019-01-05T13:30:42.287Z,3.00
2019-01-05T13:34:05.643Z,3.00
2019-01-05T13:37:43.964Z,3.00
2019-01-05T13:41:25.787Z,2.90
2019-01-05T13:45:24.003Z,2.80
2019-01-05T13:48:57.212Z,2.70
2019-01-05T13:52:06.635Z,2.60
2019-01-05T13:54:58.600Z,2.50
2019-01-05T13:58:03.790Z,2.50
2019-01-05T14:01:02.289Z,2.40
2019-01-05T14:03:50.664Z,2.40
2019-01-05T14:06:41.387Z,2.30
2019-01-05T14:09:32.253Z,2.30
2019-01-05T14:12:14.549Z,2.30
2019-01-05T14:15:16.534Z,2.30
2019-01-05T14:18:17.965Z,2.30
2019-01-05T14:21:19.807Z,2.20
2019-01-05T14:24:08.205Z,2.20
2019-01-05T14:26:55.603Z,2.10
2019-01-05T14:29:54.491Z,2.10
2019-01-05T14:32:53.073Z,2.10
2019-01-05T14:35:41.274Z,2.10
2019-01-05T14:38:30.264Z,2.10
2019-01-05T14:41:19.953Z,2.00
2019-01-05T14:44:09.689Z,2.00
2019-01-05T14:46:58.100Z,1.90
2019-01-05T14:49:44.404Z,1.90
2019-01-05T14:52:36.716Z,1.90
2019-01-05T14:55:29.318Z,1.80
2019-01-05T14:58:21.809Z,1.80
2019-01-05T15:01:17.351Z,1.80
2019-01-05T15:04:16.166Z,1.80
2019-01-05T15:07:05.915Z,1.70
2019-01-05T15:10:01.450Z,1.70
2019-01-05T15:12:58.202Z,1.70
2019-01-05T15:15:53.562Z,1.70
2019-01-05T15:18:42.150Z,1.80
2019-01-05T15:21:30.461Z,1.80
2019-01-05T15:24:20.198Z,1.80
2019-01-05T15:27:08.661Z,1.70
2019-01-05T15:30:03.633Z,1.70
2019-01-05T15:33:02.262Z,1.70
2019-01-05T15:36:09.799Z,1.70
2019-01-05T15:38:58.976Z,1.70
2019-01-05T15:41:47.081Z,1.70
2019-01-05T15:44:37.062Z,1.70
2019-01-05T15:47:41.967Z,1.70
2019-01-05T15:50:31.601Z,1.70
2019-01-05T15:53:19.847Z,1.70
2019-01-05T15:56:08.316Z,1.70
2019-01-05T15:58:56.920Z,1.80
2019-01-05T16:01:46.569Z,1.80
2019-01-05T16:04:48.640Z,1.80
2019-01-05T16:07:57.910Z,1.80
2019-01-05T16:10:46.648Z,1.80
2019-01-05T16:13:45.395Z,1.80
2019-01-05T16:16:47.382Z,1.80
2019-01-05T16:19:40.929Z,1.80
2019-01-05T16:22:29.190Z,1.80
2019-01-05T16:25:34.234Z,1.80
2019-01-05T16:28:24.054Z,1.80
2019-01-05T16:31:22.957Z,1.80
2019-01-05T16:34:19.045Z,1.80
2019-01-05T16:37:17.927Z,1.80
2019-01-05T16:40:10.185Z,1.80
2019-01-05T16:43:11.974Z,1.80
2019-01-05T16:46:04.418Z,1.70
2019-01-05T16:49:03.181Z,1.70
2019-01-05T16:51:53.747Z,1.60
2019-01-05T16:54:42.030Z,1.70
2019-01-05T16:57:30.407Z,1.70
2019-01-05T17:00:18.576Z,1.70
2019-01-05T17:03:06.968Z,1.70
2019-01-05T17:05:56.590Z,1.70
2019-01-05T17:08:46.330Z,1.80
2019-01-05T17:11:38.498Z,1.70
2019-01-05T17:14:26.841Z,1.70
2019-01-05T17:17:15.033Z,1.70
2019-01-05T17:20:07.537Z,1.80
2019-01-05T17:22:57.259Z,1.70
2019-01-05T17:25:45.506Z,1.70
2019-01-05T17:28:48.762Z,1.70
2019-01-05T17:31:47.023Z,1.70
2019-01-05T17:34:39.523Z,1.60
2019-01-05T17:37:47.679Z,1.60
2019-01-05T17:40:44.201Z,1.60
2019-01-05T17:43:28.985Z,1.60
2019-01-05T17:46:21.460Z,1.60
2019-01-05T17:49:10.179Z,1.60
2019-01-05T17:52:12.219Z,1.60
2019-01-05T17:55:08.040Z,1.60
2019-01-05T17:57:56.199Z,1.60
2019-01-05T18:00:48.889Z,1.60
2019-01-05T18:03:44.237Z,1.70
2019-01-05T18:06:34.031Z,1.60
2019-01-05T18:09:26.919Z,1.70
2019-01-05T18:12:22.705Z,1.60
2019-01-05T18:15:18.066Z,1.60
2019-01-05T18:18:06.337Z,1.60
2019-01-05T18:20:54.416Z,1.70
2019-01-05T18:23:56.004Z,1.70
2019-01-05T18:26:48.844Z,1.60
2019-01-05T18:29:41.386Z,1.70
2019-01-05T18:32:29.696Z,1.70
2019-01-05T18:35:22.269Z,1.70
2019-01-05T18:38:10.394Z,1.70
2019-01-05T18:40:59.879Z,1.70
2019-01-05T18:44:01.553Z,1.70
2019-01-05T18:47:06.496Z,1.70
2019-01-05T18:49:46.205Z,1.70
2019-01-05T18:52:44.870Z,1.60
2019-01-05T18:55:40.324Z,1.60
2019-01-05T18:58:36.217Z,1.60
2019-01-05T19:01:25.989Z,1.60
2019-01-05T19:04:13.886Z,1.60
2019-01-05T19:07:14.763Z,1.60
2019-01-05T19:09:59.027Z,1.60
2019-01-05T19:12:47.431Z,1.60
2019-01-05T19:15:35.679Z,1.60
2019-01-05T19:18:23.519Z,1.60
2019-01-05T19:21:12.002Z,1.50
2019-01-05T19:24:00.739Z,1.50
2019-01-05T19:27:03.241Z,1.60
2019-01-05T19:30:11.151Z,1.50
2019-01-05T19:33:19.258Z,1.60
2019-01-05T19:36:20.823Z,1.60
2019-01-05T19:39:08.485Z,1.60
2019-01-05T19:41:57.191Z,1.60
2019-01-05T19:44:45.333Z,1.60
2019-01-05T19:47:33.606Z,1.60
2019-01-05T19:50:32.579Z,1.60
2019-01-05T19:53:30.286Z,1.60
2019-01-05T19:56:23.005Z,1.60
2019-01-05T19:59:11.654Z,1.60
2019-01-05T20:02:01.455Z,1.60
2019-01-05T20:05:03.063Z,1.60
2019-01-05T20:07:51.683Z,1.60
2019-01-05T20:10:40.205Z,1.50
2019-01-05T20:13:28.772Z,1.50
2019-01-05T20:16:17.229Z,1.50
2019-01-05T20:19:19.026Z,1.50
2019-01-05T20:22:17.695Z,1.50
2019-01-05T20:25:02.583Z,1.50
2019-01-05T20:28:04.532Z,1.40
2019-01-05T20:30:52.874Z,1.40
2019-01-05T20:33:41.523Z,1.40
2019-01-05T20:36:40.220Z,1.30
2019-01-05T20:39:30.604Z,1.40
2019-01-05T20:42:27.146Z,1.50
2019-01-05T20:45:16.895Z,1.50
2019-01-05T20:48:04.958Z,1.40
2019-01-05T20:50:52.944Z,1.40
2019-01-05T20:53:41.345Z,1.40
2019-01-05T20:56:31.177Z,1.40
2019-01-05T20:59:35.257Z,1.50
2019-01-05T21:02:23.649Z,1.50
2019-01-05T21:05:31.658Z,1.50
2019-01-05T21:08:14.376Z,1.50
2019-01-05T21:11:13.293Z,1.50
2019-01-05T21:14:05.906Z,1.50
2019-01-05T21:16:58.371Z,1.50
2019-01-05T21:20:02.895Z,1.60
2019-01-05T21:23:09.220Z,1.50
2019-01-05T21:26:01.599Z,1.50
2019-01-05T21:28:49.787Z,1.50
2019-01-05T21:31:45.148Z,1.50
2019-01-05T21:34:50.160Z,1.50
2019-01-05T21:37:39.983Z,1.50
2019-01-05T21:40:39.888Z,1.40
2019-01-05T21:43:35.528Z,1.40
2019-01-05T21:46:31.366Z,1.40
2019-01-05T21:49:29.941Z,1.40
2019-01-05T21:52:22.426Z,1.30
2019-01-05T21:55:15.476Z,1.30
2019-01-05T21:58:17.405Z,1.30
2019-01-05T22:01:06.075Z,1.30
2019-01-05T22:04:01.836Z,1.30
2019-01-05T22:06:54.313Z,1.30
2019-01-05T22:09:42.891Z,1.30
2019-01-05T22:12:44.621Z,1.30
2019-01-05T22:15:28.596Z,1.30
2019-01-05T22:18:16.869Z,1.30
2019-01-05T22:21:09.237Z,1.30
2019-01-05T22:23:59.055Z,1.30
2019-01-05T22:26:48.886Z,1.40
2019-01-05T22:29:38.721Z,1.40
2019-01-05T22:32:34.140Z,1.40
2019-01-05T22:35:36.055Z,1.30
2019-01-05T22:38:34.803Z,1.30
2019-01-05T22:41:23.278Z,1.30
2019-01-05T22:44:11.838Z,1.20
2019-01-05T22:47:11.212Z,1.20
2019-01-05T22:49:53.018Z,1.20
2019-01-05T22:52:41.314Z,1.10
2019-01-05T22:55:29.664Z,1.10
2019-01-05T22:58:25.507Z,1.10
2019-01-05T23:01:16.490Z,1.10
2019-01-05T23:04:24.186Z,1.10
2019-01-05T23:07:20.156Z,1.10
2019-01-05T23:10:08.841Z,1.00
2019-01-05T23:13:13.733Z,1.00
2019-01-05T23:16:02.403Z,1.00
2019-01-05T23:18:53.860Z,1.00
2019-01-05T23:21:46.212Z,1.00
2019-01-05T23:24:31.258Z,0.90
2019-01-05T23:27:30.000Z,0.90
2019-01-05T23:30:31.899Z,1.00
2019-01-05T23:33:30.298Z,0.90
2019-01-05T23:36:18.306Z,1.00
2019-01-05T23:39:13.980Z,1.00
2019-01-05T23:42:02.579Z,1.00
2019-01-05T23:44:50.946Z,1.00
2019-01-05T23:47:39.271Z,0.90
2019-01-05T23:50:31.751Z,0.90
2019-01-05T23:53:30.475Z,0.90
2019-01-05T23:56:35.547Z,0.80
2019-01-05T23:59:23.989Z,0.90
